Time;durP1;ratioP1;P1;durP2;ratioP2;P2;SDS_P1;SDS_P2;PMS_P1;PMS_P2;Temp;Humidity;BMP_temperature;BMP_pressure;BME280_temperature;BME280_humidity;BME280_pressure;Samples;Min_cycle;Max_cycle;Signal;HPM_P1;HPM_P2
2021/12/11 00:02:20;;;;;;;12.32;2.25;;;;;;;;;;4841661;29;20026;-77
2021/12/11 00:04:48;;;;;;;17.10;2.20;;;;;;;;;;4825077;29;20030;-77
2021/12/11 00:07:15;;;;;;;17.13;2.63;;;;;;;;;;4841439;29;20477;-77
2021/12/11 00:09:43;;;;;;;18.05;2.83;;;;;;;;;;4841391;29;20032;-77
2021/12/11 00:12:09;;;;;;;15.60;2.72;;;;;;;;;;4841745;29;20443;-77
2021/12/11 00:14:42;;;;;;;12.98;2.10;;;;;;;;;;4841572;29;20029;-77
2021/12/11 00:17:08;;;;;;;20.02;2.33;;;;;;;;;;4841595;29;20034;-76
2021/12/11 00:19:37;;;;;;;15.85;2.25;;;;;;;;;;4842002;29;20133;-77
2021/12/11 00:22:11;;;;;;;11.75;2.67;;;;;;;;;;4855002;29;20038;-76
2021/12/11 00:24:38;;;;;;;14.55;2.03;;;;;;;;;;4859882;29;20061;-76
2021/12/11 00:27:17;;;;;;;15.50;2.40;;;;;;;;;;4843096;29;20036;-76
2021/12/11 00:29:43;;;;;;;13.77;2.33;;;;;;;;;;4843188;29;20033;-76
2021/12/11 00:32:11;;;;;;;13.45;2.25;;;;;;;;;;4859769;29;20025;-76
2021/12/11 00:34:38;;;;;;;16.55;2.70;;;;;;;;;;4842813;29;20041;-76
2021/12/11 00:37:06;;;;;;;10.73;2.80;;;;;;;;;;4842748;29;20029;-76
2021/12/11 00:39:38;;;;;;;12.30;2.28;;;;;;;;;;4859104;29;20033;-77
2021/12/11 00:42:06;;;;;;;18.58;2.92;;;;;;;;;;4859590;29;20029;-76
2021/12/11 00:44:34;;;;;;;14.80;2.88;;;;;;;;;;4859873;29;20030;-77
2021/12/11 00:47:12;;;;;;;15.40;2.60;;;;;;;;;;4859522;29;20082;-77
2021/12/11 00:49:44;;;;;;;11.75;1.80;;;;;;;;;;4859811;29;20037;-76
2021/12/11 00:52:10;;;;;;;11.57;2.50;;;;;;;;;;4859183;29;20105;-76
2021/12/11 00:54:41;;;;;;;11.23;1.83;;;;;;;;;;4842887;29;20410;-76
2021/12/11 00:57:09;;;;;;;12.40;2.08;;;;;;;;;;4858876;29;20102;-76
2021/12/11 00:59:35;;;;;;;14.27;2.05;;;;;;;;;;4859587;29;20038;-76
2021/12/11 01:02:03;;;;;;;10.70;1.92;;;;;;;;;;4858806;29;20390;-77
2021/12/11 01:04:31;;;;;;;13.65;2.55;;;;;;;;;;4859152;29;20049;-76
2021/12/11 01:06:59;;;;;;;16.33;3.08;;;;;;;;;;4859327;29;20109;-77
2021/12/11 01:09:48;;;;;;;11.60;2.05;;;;;;;;;;4859513;29;20033;-77
2021/12/11 01:12:17;;;;;;;19.52;2.28;;;;;;;;;;4842797;29;20041;-77
2021/12/11 01:14:52;;;;;;;14.70;2.00;;;;;;;;;;4859373;29;20120;-76
2021/12/11 01:17:20;;;;;;;13.68;2.00;;;;;;;;;;4842676;29;20406;-76
2021/12/11 01:19:49;;;;;;;10.55;1.98;;;;;;;;;;4862851;29;20053;-76
2021/12/11 01:22:32;;;;;;;13.98;2.40;;;;;;;;;;4863095;29;20037;-77
2021/12/11 01:25:00;;;;;;;13.32;1.52;;;;;;;;;;4862684;29;20036;-77
2021/12/11 01:27:27;;;;;;;13.55;1.90;;;;;;;;;;4845735;29;20125;-76
2021/12/11 01:29:56;;;;;;;10.32;2.00;;;;;;;;;;4862616;29;20036;-76
2021/12/11 01:32:27;;;;;;;7.40;2.00;;;;;;;;;;4863004;29;20026;-77
2021/12/11 01:34:54;;;;;;;8.32;1.40;;;;;;;;;;4862554;29;20414;-77
2021/12/11 01:37:20;;;;;;;9.40;1.80;;;;;;;;;;4862736;29;20025;-77
2021/12/11 01:39:48;;;;;;;11.30;1.90;;;;;;;;;;4862573;29;20057;-76
2021/12/11 01:42:19;;;;;;;13.00;2.20;;;;;;;;;;4862534;29;20481;-77
2021/12/11 01:44:46;;;;;;;14.50;1.83;;;;;;;;;;4863036;29;20029;-77
2021/12/11 01:47:14;;;;;;;14.32;1.75;;;;;;;;;;4861304;29;20081;-77
2021/12/11 01:49:43;;;;;;;12.25;1.60;;;;;;;;;;4845415;29;20379;-77
2021/12/11 01:52:34;;;;;;;13.48;2.22;;;;;;;;;;4861996;29;20120;-77
2021/12/11 01:55:00;;;;;;;11.40;1.80;;;;;;;;;;4855673;29;20049;-77
2021/12/11 01:57:28;;;;;;;18.75;1.90;;;;;;;;;;4862626;29;20026;-77
2021/12/11 01:59:58;;;;;;;18.38;2.30;;;;;;;;;;4862357;29;20037;-77
2021/12/11 02:02:27;;;;;;;19.02;2.25;;;;;;;;;;4862186;29;20096;-77
2021/12/11 02:04:55;;;;;;;14.15;2.45;;;;;;;;;;4861935;29;20447;-77
2021/12/11 02:07:32;;;;;;;10.85;1.80;;;;;;;;;;4862133;29;20124;-77
2021/12/11 02:10:00;;;;;;;15.20;2.55;;;;;;;;;;4861153;29;20034;-77
2021/12/11 02:12:34;;;;;;;17.15;2.25;;;;;;;;;;4861874;29;20025;-77
2021/12/11 02:15:03;;;;;;;12.10;2.33;;;;;;;;;;4845197;29;20036;-77
2021/12/11 02:17:41;;;;;;;12.98;3.00;;;;;;;;;;4861169;29;20032;-77
2021/12/11 02:20:10;;;;;;;12.38;2.45;;;;;;;;;;4861666;29;20116;-77
2021/12/11 02:22:39;;;;;;;9.98;2.13;;;;;;;;;;4861895;29;20109;-76
2021/12/11 02:25:11;;;;;;;15.27;2.60;;;;;;;;;;4859244;29;20086;-76
2021/12/11 02:27:41;;;;;;;14.13;2.20;;;;;;;;;;4843887;29;20026;-76
2021/12/11 02:30:20;;;;;;;11.43;1.75;;;;;;;;;;4842052;29;20026;-77
2021/12/11 02:33:07;;;;;;;8.73;1.80;;;;;;;;;;4843052;29;20026;-76
2021/12/11 02:35:39;;;;;;;10.95;1.70;;;;;;;;;;4858606;29;20034;-77
2021/12/11 02:38:31;;;;;;;15.20;2.33;;;;;;;;;;4861518;29;20021;-76
2021/12/11 02:41:23;;;;;;;10.15;2.10;;;;;;;;;;4861615;29;20037;-77
2021/12/11 02:43:54;;;;;;;12.13;2.53;;;;;;;;;;4858276;29;20528;-77
2021/12/11 02:46:35;;;;;;;12.25;2.35;;;;;;;;;;4861227;29;20137;-77
2021/12/11 02:49:07;;;;;;;18.73;2.58;;;;;;;;;;4860770;29;20033;-77
2021/12/11 02:51:33;;;;;;;8.50;1.67;;;;;;;;;;4861023;29;20592;-77
2021/12/11 02:54:18;;;;;;;20.17;2.20;;;;;;;;;;4861487;29;20025;-77
2021/12/11 02:56:51;;;;;;;12.77;3.28;;;;;;;;;;4861430;29;20443;-77
2021/12/11 02:59:18;;;;;;;12.63;3.03;;;;;;;;;;4861124;29;20112;-77
2021/12/11 03:01:52;;;;;;;8.38;1.75;;;;;;;;;;4843221;29;20042;-77
2021/12/11 03:04:29;;;;;;;11.60;1.92;;;;;;;;;;4844863;29;20040;-77
2021/12/11 03:06:57;;;;;;;15.18;2.92;;;;;;;;;;4840892;29;20090;-77
2021/12/11 03:09:24;;;;;;;10.35;2.25;;;;;;;;;;4852363;29;20456;-76
2021/12/11 03:11:53;;;;;;;15.02;2.17;;;;;;;;;;4861125;29;20090;-77
2021/12/11 03:14:19;;;;;;;8.02;1.75;;;;;;;;;;4860895;29;20109;-77
2021/12/11 03:16:46;;;;;;;16.67;2.50;;;;;;;;;;4861078;29;20398;-76
2021/12/11 03:19:15;;;;;;;13.50;1.73;;;;;;;;;;4860857;29;20089;-77
2021/12/11 03:21:41;;;;;;;8.65;1.92;;;;;;;;;;4860501;29;20530;-77
2021/12/11 03:24:08;;;;;;;10.88;2.35;;;;;;;;;;4860865;29;20473;-77
2021/12/11 03:26:34;;;;;;;13.30;1.90;;;;;;;;;;4860788;29;20040;-77
2021/12/11 03:29:01;;;;;;;10.77;2.10;;;;;;;;;;4861132;29;20040;-76
2021/12/11 03:31:27;;;;;;;17.02;2.47;;;;;;;;;;4859203;29;20029;-76
2021/12/11 03:33:57;;;;;;;19.45;2.65;;;;;;;;;;4860746;29;20207;-76
2021/12/11 03:36:24;;;;;;;15.88;1.60;;;;;;;;;;4860609;29;20030;-76
2021/12/11 03:38:59;;;;;;;16.05;2.08;;;;;;;;;;4860865;29;20029;-77
2021/12/11 03:41:25;;;;;;;16.35;2.47;;;;;;;;;;4860009;29;20030;-77
2021/12/11 03:43:52;;;;;;;12.15;2.30;;;;;;;;;;4860329;29;20113;-77
2021/12/11 03:46:18;;;;;;;8.88;1.73;;;;;;;;;;4859890;29;20034;-77
2021/12/11 03:48:47;;;;;;;20.33;2.35;;;;;;;;;;4861002;29;20498;-77
2021/12/11 03:51:14;;;;;;;20.05;2.20;;;;;;;;;;4860139;29;20050;-77
2021/12/11 03:53:41;;;;;;;18.05;2.72;;;;;;;;;;4860431;29;20034;-77
2021/12/11 03:56:09;;;;;;;18.63;2.05;;;;;;;;;;4859667;29;20099;-77
2021/12/11 03:58:36;;;;;;;11.90;3.08;;;;;;;;;;4859810;29;20485;-77
2021/12/11 04:01:07;;;;;;;11.10;1.75;;;;;;;;;;4860431;29;20113;-77
2021/12/11 04:03:34;;;;;;;11.77;2.27;;;;;;;;;;4860309;29;20087;-76
2021/12/11 04:06:02;;;;;;;13.57;1.95;;;;;;;;;;4859922;29;20030;-76
2021/12/11 04:08:29;;;;;;;12.07;1.98;;;;;;;;;;4860351;29;20410;-77
2021/12/11 04:10:56;;;;;;;19.17;2.35;;;;;;;;;;4859560;29;20558;-77
2021/12/11 04:13:23;;;;;;;16.10;2.20;;;;;;;;;;4859219;29;20036;-77
2021/12/11 04:15:51;;;;;;;9.50;2.20;;;;;;;;;;4860249;29;20382;-77
2021/12/11 04:18:17;;;;;;;12.10;2.05;;;;;;;;;;4859846;29;20033;-77
2021/12/11 04:20:44;;;;;;;8.60;1.70;;;;;;;;;;4859514;29;20033;-77
2021/12/11 04:23:12;;;;;;;9.93;1.95;;;;;;;;;;4860017;29;20116;-77
2021/12/11 04:25:40;;;;;;;15.40;2.20;;;;;;;;;;4859651;29;20494;-77
2021/12/11 04:28:08;;;;;;;13.13;2.15;;;;;;;;;;4859170;29;20094;-77
2021/12/11 04:30:34;;;;;;;13.20;1.73;;;;;;;;;;4859716;29;20478;-76
2021/12/11 04:33:00;;;;;;;12.40;2.45;;;;;;;;;;4843405;29;20033;-77
2021/12/11 04:35:29;;;;;;;16.85;2.22;;;;;;;;;;4859599;29;20022;-76
2021/12/11 04:37:55;;;;;;;14.25;1.73;;;;;;;;;;4843600;29;20488;-76
2021/12/11 04:40:26;;;;;;;22.45;3.17;;;;;;;;;;4858725;29;20125;-77
2021/12/11 04:43:02;;;;;;;17.13;2.30;;;;;;;;;;4859477;29;20559;-77
2021/12/11 04:45:32;;;;;;;11.60;2.20;;;;;;;;;;4859528;29;20057;-77
2021/12/11 04:48:11;;;;;;;14.23;2.05;;;;;;;;;;4859466;29;20121;-77
2021/12/11 04:56:37;;;;;;;12.80;2.88;;;;;;;;;;4806164;29;20086;-77
2021/12/11 05:07:19;;;;;;;;;;;;;;;;;;4806049;29;20039;-77
2021/12/11 05:09:57;;;;;;;17.58;2.70;;;;;;;;;;4806377;29;19909;-77
2021/12/11 05:14:51;;;;;;;15.27;2.42;;;;;;;;;;4806004;29;20035;-77
2021/12/11 05:17:17;;;;;;;13.70;2.63;;;;;;;;;;4805842;29;20098;-77
2021/12/11 05:19:45;;;;;;;10.32;2.47;;;;;;;;;;4806535;29;20039;-77
2021/12/11 05:22:11;;;;;;;17.63;2.63;;;;;;;;;;4805647;29;20566;-77
2021/12/11 05:24:39;;;;;;;13.95;2.20;;;;;;;;;;4790796;29;20437;-76
2021/12/11 05:27:05;;;;;;;12.93;2.50;;;;;;;;;;4805670;29;20050;-77
2021/12/11 05:29:31;;;;;;;21.77;2.45;;;;;;;;;;4805456;29;20043;-76
2021/12/11 05:31:58;;;;;;;13.95;2.85;;;;;;;;;;4791148;29;20400;-77
2021/12/11 05:34:24;;;;;;;20.90;2.55;;;;;;;;;;4863189;29;20037;-77
2021/12/11 05:36:50;;;;;;;16.98;2.35;;;;;;;;;;4862478;29;20022;-77
2021/12/11 05:39:19;;;;;;;17.70;2.28;;;;;;;;;;4862322;29;20040;-77
2021/12/11 05:41:46;;;;;;;11.93;2.00;;;;;;;;;;4861979;29;20033;-77
2021/12/11 05:44:12;;;;;;;20.67;2.28;;;;;;;;;;4846103;29;20557;-77
2021/12/11 05:46:39;;;;;;;19.48;2.58;;;;;;;;;;4862477;29;20037;-76
2021/12/11 05:49:05;;;;;;;9.20;2.55;;;;;;;;;;4862979;29;20094;-76
2021/12/11 05:51:38;;;;;;;15.02;2.40;;;;;;;;;;4862111;29;20109;-77
2021/12/11 05:54:07;;;;;;;16.80;2.58;;;;;;;;;;4862529;29;20450;-76
2021/12/11 05:56:36;;;;;;;16.25;2.88;;;;;;;;;;4861060;29;20074;-76
2021/12/11 05:59:03;;;;;;;15.10;2.55;;;;;;;;;;4862374;29;20033;-77
2021/12/11 06:01:29;;;;;;;13.45;2.70;;;;;;;;;;4845673;29;20112;-77
2021/12/11 06:03:56;;;;;;;17.65;2.92;;;;;;;;;;4850442;29;20146;-77
2021/12/11 06:06:22;;;;;;;22.70;4.10;;;;;;;;;;4843795;29;20061;-77
2021/12/11 06:08:48;;;;;;;11.27;2.42;;;;;;;;;;4843643;29;20072;-77
2021/12/11 06:11:15;;;;;;;21.35;3.22;;;;;;;;;;4862505;29;20026;-77
2021/12/11 06:13:41;;;;;;;18.83;3.70;;;;;;;;;;4862046;29;20085;-77
2021/12/11 06:16:08;;;;;;;15.82;2.90;;;;;;;;;;4862203;29;20017;-77
2021/12/11 06:18:34;;;;;;;13.27;2.47;;;;;;;;;;4861933;29;20504;-77
2021/12/11 06:21:00;;;;;;;18.38;2.83;;;;;;;;;;4862482;29;20033;-77
2021/12/11 06:23:28;;;;;;;9.05;2.15;;;;;;;;;;4861459;29;20033;-77
2021/12/11 06:25:55;;;;;;;19.15;2.70;;;;;;;;;;4861715;29;20053;-76
2021/12/11 06:28:22;;;;;;;10.90;2.42;;;;;;;;;;4851212;29;20034;-76
2021/12/11 06:30:48;;;;;;;14.55;3.20;;;;;;;;;;4837459;29;20521;-77
2021/12/11 06:33:14;;;;;;;15.45;2.60;;;;;;;;;;4861842;29;20491;-77
2021/12/11 06:35:49;;;;;;;25.05;3.72;;;;;;;;;;4845482;29;20086;-77
2021/12/11 06:38:18;;;;;;;18.38;3.10;;;;;;;;;;4843092;29;20034;-76
2021/12/11 06:40:45;;;;;;;14.93;2.63;;;;;;;;;;4843067;29;20026;-76
2021/12/11 06:43:11;;;;;;;23.20;3.05;;;;;;;;;;4856635;29;20047;-76
2021/12/11 06:45:37;;;;;;;24.77;2.15;;;;;;;;;;4861381;29;20035;-77
2021/12/11 06:48:04;;;;;;;12.10;2.40;;;;;;;;;;4862073;29;20153;-76
2021/12/11 06:50:30;;;;;;;21.73;2.83;;;;;;;;;;4861330;29;20025;-76
2021/12/11 06:52:57;;;;;;;12.93;2.35;;;;;;;;;;4860915;29;20050;-77
2021/12/11 06:55:23;;;;;;;17.67;2.67;;;;;;;;;;4861429;29;20397;-76
2021/12/11 06:57:49;;;;;;;14.32;2.80;;;;;;;;;;4861382;29;20034;-76
2021/12/11 07:00:18;;;;;;;14.73;2.45;;;;;;;;;;4861230;29;20029;-77
2021/12/11 07:02:44;;;;;;;12.45;2.83;;;;;;;;;;4861184;29;20108;-77
2021/12/11 07:05:10;;;;;;;13.35;2.40;;;;;;;;;;4861587;29;20030;-76
2021/12/11 07:07:37;;;;;;;15.68;2.60;;;;;;;;;;4860553;29;20581;-77
2021/12/11 07:10:07;;;;;;;13.98;2.63;;;;;;;;;;4861194;29;20479;-77
2021/12/11 07:12:33;;;;;;;18.83;3.03;;;;;;;;;;4860052;29;20443;-77
2021/12/11 07:14:59;;;;;;;16.75;3.10;;;;;;;;;;4860211;29;20025;-76
2021/12/11 07:17:25;;;;;;;12.25;2.28;;;;;;;;;;4860654;29;20041;-76
2021/12/11 07:19:52;;;;;;;12.70;3.50;;;;;;;;;;4861145;29;20025;-76
2021/12/11 07:22:18;;;;;;;15.48;3.08;;;;;;;;;;4860459;29;20030;-77
2021/12/11 07:24:50;;;;;;;15.85;2.55;;;;;;;;;;4860918;29;20031;-77
2021/12/11 07:27:17;;;;;;;15.45;1.95;;;;;;;;;;4860896;29;20112;-77
2021/12/11 07:29:43;;;;;;;15.43;2.50;;;;;;;;;;4860877;29;20037;-77
2021/12/11 07:32:11;;;;;;;20.63;3.03;;;;;;;;;;4860362;29;20037;-77
2021/12/11 07:34:37;;;;;;;18.77;2.88;;;;;;;;;;4843907;29;20402;-76
2021/12/11 07:37:04;;;;;;;13.85;2.90;;;;;;;;;;4860492;29;20486;-77
2021/12/11 07:39:30;;;;;;;10.85;2.20;;;;;;;;;;4843757;29;20037;-77
2021/12/11 07:41:57;;;;;;;13.40;2.63;;;;;;;;;;4860354;29;20037;-77
2021/12/11 07:44:24;;;;;;;26.35;6.75;;;;;;;;;;4843685;29;20041;-77
2021/12/11 07:46:51;;;;;;;22.60;6.82;;;;;;;;;;4859533;29;20098;-77
2021/12/11 07:49:17;;;;;;;20.33;4.53;;;;;;;;;;4859185;29;20108;-77
2021/12/11 07:51:43;;;;;;;20.35;4.15;;;;;;;;;;4859829;29;20053;-77
2021/12/11 07:54:10;;;;;;;18.20;3.40;;;;;;;;;;4859499;29;20050;-77
2021/12/11 07:56:37;;;;;;;16.38;3.08;;;;;;;;;;4858186;29;20034;-77
2021/12/11 07:59:04;;;;;;;15.18;2.90;;;;;;;;;;4852889;29;20022;-77
2021/12/11 08:01:33;;;;;;;20.75;3.00;;;;;;;;;;4851658;29;20033;-77
2021/12/11 08:04:00;;;;;;;20.45;3.22;;;;;;;;;;4851556;29;20030;-77
2021/12/11 08:06:26;;;;;;;16.30;3.75;;;;;;;;;;4851662;29;20038;-77
2021/12/11 08:08:52;;;;;;;14.93;3.42;;;;;;;;;;4850426;29;20042;-77
2021/12/11 08:11:19;;;;;;;19.00;2.88;;;;;;;;;;4848397;29;20073;-77
2021/12/11 08:13:47;;;;;;;22.40;3.97;;;;;;;;;;4859672;29;20494;-77
2021/12/11 08:16:15;;;;;;;21.30;3.28;;;;;;;;;;4860177;29;20025;-77
2021/12/11 08:18:41;;;;;;;17.58;2.70;;;;;;;;;;4860233;29;20044;-78
2021/12/11 08:21:07;;;;;;;17.25;3.17;;;;;;;;;;4859667;29;20029;-79
2021/12/11 08:23:33;;;;;;;17.23;2.80;;;;;;;;;;4860029;29;20034;-78
2021/12/11 08:26:00;;;;;;;16.23;3.17;;;;;;;;;;4859152;29;20093;-77
2021/12/11 08:28:28;;;;;;;16.92;3.63;;;;;;;;;;4859595;29;20017;-77
2021/12/11 08:30:55;;;;;;;19.40;3.90;;;;;;;;;;4859466;29;20090;-77
2021/12/11 08:33:23;;;;;;;13.25;3.20;;;;;;;;;;4859806;29;20086;-77
2021/12/11 08:35:49;;;;;;;16.95;3.88;;;;;;;;;;4859586;29;20086;-78
2021/12/11 08:38:17;;;;;;;27.55;4.05;;;;;;;;;;4859915;29;20030;-77
2021/12/11 08:40:45;;;;;;;13.45;2.92;;;;;;;;;;4859473;29;20036;-79
2021/12/11 08:43:13;;;;;;;18.92;3.03;;;;;;;;;;4859780;29;20102;-77
2021/12/11 08:45:46;;;;;;;22.98;2.90;;;;;;;;;;4857827;29;20030;-77
2021/12/11 08:48:14;;;;;;;19.75;2.60;;;;;;;;;;4859458;29;20029;-77
2021/12/11 08:50:41;;;;;;;13.38;3.38;;;;;;;;;;4859113;29;20600;-77
2021/12/11 08:53:07;;;;;;;16.38;2.67;;;;;;;;;;4842960;29;20084;-77
2021/12/11 08:55:39;;;;;;;19.02;3.28;;;;;;;;;;4859405;29;20038;-77
2021/12/11 08:58:05;;;;;;;;;;;;;;;;;;4859364;29;20030;-77
2021/12/11 09:00:43;;;;;;;16.67;2.80;;;;;;;;;;4859216;29;19908;-77
2021/12/11 09:03:12;;;;;;;19.08;3.03;;;;;;;;;;4855267;29;20182;-79
2021/12/11 09:05:45;;;;;;;19.45;3.13;;;;;;;;;;4847415;29;20029;-77
2021/12/11 09:08:29;;;;;;;10.00;2.55;;;;;;;;;;4859579;29;20170;-78
2021/12/11 09:11:01;;;;;;;14.98;2.50;;;;;;;;;;4859148;29;20068;-78
2021/12/11 09:13:32;;;;;;;16.88;2.63;;;;;;;;;;4863828;29;20101;-78
2021/12/11 09:16:24;;;;;;;17.67;3.00;;;;;;;;;;4840092;29;20045;-78
2021/12/11 09:18:50;;;;;;;13.43;2.47;;;;;;;;;;4850362;29;20074;-78
2021/12/11 09:21:29;;;;;;;15.50;2.67;;;;;;;;;;4847083;29;20034;-79
2021/12/11 09:24:03;;;;;;;18.17;3.05;;;;;;;;;;4850334;29;20491;-78
2021/12/11 09:26:32;;;;;;;17.92;4.00;;;;;;;;;;4837103;29;20513;-77
2021/12/11 09:29:00;;;;;;;17.50;3.55;;;;;;;;;;4858487;29;20057;-77
2021/12/11 09:31:38;;;;;;;15.48;3.17;;;;;;;;;;4854973;29;20033;-76
2021/12/11 09:34:11;;;;;;;20.27;2.85;;;;;;;;;;4857511;29;20029;-77
2021/12/11 09:36:40;;;;;;;21.25;3.72;;;;;;;;;;4849346;29;20084;-76
2021/12/11 09:39:09;;;;;;;9.63;2.72;;;;;;;;;;4857526;29;20381;-76
2021/12/11 09:41:36;;;;;;;13.15;2.80;;;;;;;;;;4863853;29;20026;-76
2021/12/11 09:44:10;;;;;;;24.45;3.65;;;;;;;;;;4869917;29;20057;-77
2021/12/11 09:46:38;;;;;;;14.82;3.35;;;;;;;;;;4853660;29;20033;-76
2021/12/11 09:49:06;;;;;;;13.88;3.25;;;;;;;;;;4860523;29;20486;-77
2021/12/11 09:51:37;;;;;;;25.77;3.97;;;;;;;;;;4858529;29;20045;-77
2021/12/11 09:54:05;;;;;;;19.13;3.08;;;;;;;;;;4852996;29;20502;-77
2021/12/11 09:56:36;;;;;;;20.77;3.47;;;;;;;;;;4843745;29;20490;-76
2021/12/11 09:59:06;;;;;;;15.43;2.97;;;;;;;;;;4857771;29;20405;-76
2021/12/11 10:01:34;;;;;;;17.73;2.53;;;;;;;;;;4834641;29;20556;-77
2021/12/11 10:04:03;;;;;;;29.25;3.97;;;;;;;;;;4850387;29;20033;-77
2021/12/11 10:06:41;;;;;;;16.52;3.00;;;;;;;;;;4857130;29;20101;-77
2021/12/11 10:09:19;;;;;;;19.38;2.75;;;;;;;;;;4844542;29;20129;-77
2021/12/11 10:11:51;;;;;;;25.98;3.05;;;;;;;;;;4861887;29;20086;-77
2021/12/11 10:14:19;;;;;;;26.70;3.17;;;;;;;;;;4862573;29;20036;-77
2021/12/11 10:16:48;;;;;;;18.65;3.72;;;;;;;;;;4860389;29;20278;-77
2021/12/11 10:19:15;;;;;;;20.42;3.50;;;;;;;;;;4861301;29;20025;-77
2021/12/11 10:21:46;;;;;;;18.23;2.55;;;;;;;;;;4859977;29;20086;-77
2021/12/11 10:24:14;;;;;;;22.87;3.53;;;;;;;;;;4853444;29;20049;-77
2021/12/11 10:26:41;;;;;;;16.70;3.50;;;;;;;;;;4856660;29;20450;-77
2021/12/11 10:29:10;;;;;;;17.23;3.00;;;;;;;;;;4860056;29;20475;-77
2021/12/11 10:31:38;;;;;;;27.23;3.38;;;;;;;;;;4860813;29;20029;-77
2021/12/11 10:34:07;;;;;;;21.83;3.40;;;;;;;;;;4861638;29;20026;-77
2021/12/11 10:36:41;;;;;;;16.35;2.55;;;;;;;;;;4857977;29;20033;-77
2021/12/11 10:39:10;;;;;;;17.67;2.67;;;;;;;;;;4860787;29;20032;-77
2021/12/11 10:41:36;;;;;;;18.00;2.80;;;;;;;;;;4852768;29;20438;-77
2021/12/11 10:44:08;;;;;;;13.38;2.85;;;;;;;;;;4860279;29;20041;-77
2021/12/11 10:46:38;;;;;;;17.63;2.83;;;;;;;;;;4853201;29;20086;-77
2021/12/11 10:49:05;;;;;;;19.00;3.15;;;;;;;;;;4856899;29;20378;-77
2021/12/11 10:51:34;;;;;;;20.52;3.10;;;;;;;;;;4857494;29;20045;-77
2021/12/11 10:54:00;;;;;;;19.08;2.95;;;;;;;;;;4852947;29;20025;-77
2021/12/11 10:56:26;;;;;;;19.77;3.15;;;;;;;;;;4843938;29;20025;-77
2021/12/11 10:58:57;;;;;;;20.00;2.53;;;;;;;;;;4862000;29;20030;-78
2021/12/11 11:01:41;;;;;;;15.10;2.85;;;;;;;;;;4845054;29;20025;-78
2021/12/11 11:04:09;;;;;;;16.42;2.50;;;;;;;;;;4862086;29;20513;-78
2021/12/11 11:06:36;;;;;;;18.42;3.55;;;;;;;;;;4861164;29;20033;-76
2021/12/11 11:09:03;;;;;;;21.98;3.10;;;;;;;;;;4861917;29;20502;-76
2021/12/11 11:11:31;;;;;;;18.15;3.17;;;;;;;;;;4845109;29;20040;-77
2021/12/11 11:13:59;;;;;;;16.55;2.78;;;;;;;;;;4844710;29;20057;-77
2021/12/11 11:16:26;;;;;;;16.83;2.53;;;;;;;;;;4861993;29;20053;-76
2021/12/11 11:18:53;;;;;;;21.10;3.13;;;;;;;;;;4861746;29;20478;-76
2021/12/11 11:21:39;;;;;;;21.33;3.67;;;;;;;;;;4860478;29;20036;-76
2021/12/11 11:24:07;;;;;;;16.02;2.10;;;;;;;;;;4860754;29;20385;-75
2021/12/11 11:26:34;;;;;;;15.35;2.95;;;;;;;;;;4861561;29;20478;-77
2021/12/11 11:29:02;;;;;;;21.70;3.30;;;;;;;;;;4848918;29;20109;-77
2021/12/11 11:31:34;;;;;;;17.65;2.40;;;;;;;;;;4842799;29;20034;-80
2021/12/11 11:34:00;;;;;;;18.00;2.47;;;;;;;;;;4860239;29;20032;-77
2021/12/11 11:36:27;;;;;;;14.43;2.63;;;;;;;;;;4858948;29;20410;-77
2021/12/11 11:38:55;;;;;;;17.52;2.35;;;;;;;;;;4830912;29;20017;-77
2021/12/11 11:41:24;;;;;;;16.83;2.30;;;;;;;;;;4856485;29;20041;-77
2021/12/11 11:43:51;;;;;;;16.15;2.38;;;;;;;;;;4847199;29;20034;-77
2021/12/11 11:46:17;;;;;;;12.45;2.55;;;;;;;;;;4853623;29;20104;-77
2021/12/11 11:48:46;;;;;;;15.77;2.28;;;;;;;;;;4850077;29;20030;-78
2021/12/11 11:51:14;;;;;;;15.20;2.35;;;;;;;;;;4857702;29;20190;-78
2021/12/11 11:53:41;;;;;;;10.63;1.92;;;;;;;;;;4861465;29;20033;-78
2021/12/11 11:56:09;;;;;;;11.05;2.10;;;;;;;;;;4861390;29;20089;-77
2021/12/11 11:58:35;;;;;;;18.15;2.10;;;;;;;;;;4860559;29;20025;-77
2021/12/11 12:01:10;;;;;;;16.42;2.78;;;;;;;;;;4860520;29;20486;-86
2021/12/11 12:03:37;;;;;;;13.25;2.42;;;;;;;;;;4859861;29;20370;-77
2021/12/11 12:06:05;;;;;;;11.93;2.42;;;;;;;;;;4859897;29;20025;-77
2021/12/11 12:08:31;;;;;;;17.40;2.88;;;;;;;;;;4843727;29;20455;-77
2021/12/11 12:10:58;;;;;;;15.63;2.47;;;;;;;;;;4831780;29;20128;-77
2021/12/11 12:13:25;;;;;;;16.15;2.20;;;;;;;;;;4856910;29;20101;-77
2021/12/11 12:15:53;;;;;;;14.98;3.15;;;;;;;;;;4846102;29;20022;-77
2021/12/11 12:18:20;;;;;;;12.32;2.08;;;;;;;;;;4860069;29;20089;-77
2021/12/11 12:20:47;;;;;;;17.42;2.45;;;;;;;;;;4849116;29;20444;-77
2021/12/11 12:23:13;;;;;;;23.88;2.50;;;;;;;;;;4843021;29;20116;-78
2021/12/11 12:25:41;;;;;;;16.58;2.65;;;;;;;;;;4842205;29;20036;-77
2021/12/11 12:28:07;;;;;;;15.68;2.78;;;;;;;;;;4842464;29;20479;-76
2021/12/11 12:30:38;;;;;;;13.65;2.08;;;;;;;;;;4849332;29;20383;-76
2021/12/11 12:33:04;;;;;;;14.20;2.80;;;;;;;;;;4857347;29;20030;-77
2021/12/11 12:35:31;;;;;;;33.03;3.13;;;;;;;;;;4842017;29;20148;-76
2021/12/11 12:37:58;;;;;;;13.68;3.17;;;;;;;;;;4841624;29;20026;-76
2021/12/11 12:40:29;;;;;;;16.70;3.13;;;;;;;;;;4841123;29;20052;-77
2021/12/11 12:43:04;;;;;;;17.08;2.30;;;;;;;;;;4853779;29;20556;-77
2021/12/11 12:45:34;;;;;;;17.85;3.15;;;;;;;;;;4853165;29;20030;-77
2021/12/11 12:48:04;;;;;;;8.70;1.67;;;;;;;;;;4859497;29;20093;-77
2021/12/11 12:50:33;;;;;;;11.88;2.58;;;;;;;;;;4859169;29;20026;-77
2021/12/11 12:52:59;;;;;;;12.52;2.10;;;;;;;;;;4859365;29;20057;-77
2021/12/11 12:55:25;;;;;;;10.02;1.80;;;;;;;;;;4859029;29;20034;-77
2021/12/11 12:57:54;;;;;;;18.70;3.45;;;;;;;;;;4860237;29;20025;-76
2021/12/11 13:00:31;;;;;;;15.02;2.50;;;;;;;;;;4859689;29;20383;-77
2021/12/11 13:03:00;;;;;;;15.10;3.08;;;;;;;;;;4858018;29;20025;-76
2021/12/11 13:05:30;;;;;;;17.10;2.50;;;;;;;;;;4850528;29;20026;-77
2021/12/11 13:07:58;;;;;;;17.65;2.67;;;;;;;;;;4847228;29;20522;-77
2021/12/11 13:10:29;;;;;;;18.08;2.42;;;;;;;;;;4840536;29;20033;-77
2021/12/11 13:12:56;;;;;;;11.73;2.40;;;;;;;;;;4841350;29;20030;-77
2021/12/11 13:15:27;;;;;;;16.60;3.17;;;;;;;;;;4844775;29;20086;-77
2021/12/11 13:17:55;;;;;;;18.83;3.15;;;;;;;;;;4844655;29;20383;-77
2021/12/11 13:20:27;;;;;;;16.65;2.42;;;;;;;;;;4828173;29;20037;-77
2021/12/11 13:22:53;;;;;;;16.67;3.08;;;;;;;;;;4844827;29;20041;-75
2021/12/11 13:25:21;;;;;;;8.60;2.25;;;;;;;;;;4827629;29;20037;-77
2021/12/11 13:27:52;;;;;;;17.08;2.75;;;;;;;;;;4844414;29;20054;-77
2021/12/11 13:30:21;;;;;;;14.68;2.35;;;;;;;;;;4844571;29;20040;-77
2021/12/11 13:32:48;;;;;;;14.57;2.25;;;;;;;;;;4844559;29;20029;-77
2021/12/11 13:35:20;;;;;;;15.90;2.80;;;;;;;;;;4844374;29;20040;-76
2021/12/11 13:37:46;;;;;;;;;;;;;;;;;;4828031;29;20026;-76
2021/12/11 13:40:14;;;;;;;12.40;2.55;;;;;;;;;;4844024;29;20369;-74
2021/12/11 13:42:41;;;;;;;17.50;3.10;;;;;;;;;;4844945;29;20034;-75
2021/12/11 13:45:11;;;;;;;13.30;2.72;;;;;;;;;;4862499;29;20059;-75
2021/12/11 13:47:38;;;;;;;18.38;2.63;;;;;;;;;;4862608;29;20065;-75
2021/12/11 13:50:07;;;;;;;15.02;2.55;;;;;;;;;;4862550;29;20096;-74
2021/12/11 13:52:34;;;;;;;19.08;2.05;;;;;;;;;;4862187;29;20081;-75
2021/12/11 13:55:00;;;;;;;15.18;2.50;;;;;;;;;;4862463;29;20179;-77
2021/12/11 13:57:26;;;;;;;16.58;2.83;;;;;;;;;;4855837;29;20509;-74
2021/12/11 13:59:57;;;;;;;16.63;3.13;;;;;;;;;;4862087;29;20120;-75
2021/12/11 14:02:24;;;;;;;18.65;2.38;;;;;;;;;;4862348;29;20386;-75
2021/12/11 14:04:50;;;;;;;12.60;2.53;;;;;;;;;;4862111;29;20025;-77
2021/12/11 14:07:20;;;;;;;22.38;2.85;;;;;;;;;;4861973;29;20037;-74
2021/12/11 14:09:52;;;;;;;17.55;2.67;;;;;;;;;;4862419;29;20112;-77
2021/12/11 14:12:18;;;;;;;;;;;;;;;;;;4862561;29;20486;-75
2021/12/11 14:14:44;;;;;;;11.07;2.45;;;;;;;;;;4845326;29;19908;-75
2021/12/11 14:17:11;;;;;;;21.92;2.85;;;;;;;;;;4862300;29;20026;-76
2021/12/11 14:19:37;;;;;;;11.52;2.22;;;;;;;;;;4862341;29;20513;-77
2021/12/11 14:22:05;;;;;;;10.10;1.85;;;;;;;;;;4845084;29;20029;-77
2021/12/11 14:24:32;;;;;;;18.40;2.90;;;;;;;;;;4861893;29;20060;-77
2021/12/11 14:26:59;;;;;;;14.45;2.20;;;;;;;;;;4861694;29;20031;-76
2021/12/11 14:29:25;;;;;;;12.80;2.45;;;;;;;;;;4862003;29;20041;-77
2021/12/11 14:31:51;;;;;;;14.55;3.35;;;;;;;;;;4861668;29;20604;-77
2021/12/11 14:34:17;;;;;;;15.65;2.40;;;;;;;;;;4862092;29;20037;-77
2021/12/11 14:36:44;;;;;;;13.07;2.25;;;;;;;;;;4861336;29;20029;-77
2021/12/11 14:39:14;;;;;;;17.00;2.60;;;;;;;;;;4861825;29;20029;-77
2021/12/11 14:41:41;;;;;;;12.23;1.92;;;;;;;;;;4861761;29;20026;-80
2021/12/11 14:44:10;;;;;;;18.48;2.90;;;;;;;;;;4861591;29;20033;-77
2021/12/11 14:46:36;;;;;;;15.52;2.25;;;;;;;;;;4861775;29;20029;-77
2021/12/11 14:49:04;;;;;;;8.88;2.22;;;;;;;;;;4861647;29;20033;-79
2021/12/11 14:51:31;;;;;;;14.48;2.10;;;;;;;;;;4860821;29;20062;-77
2021/12/11 14:53:58;;;;;;;17.67;2.22;;;;;;;;;;4861721;29;20418;-80
2021/12/11 14:56:27;;;;;;;14.60;2.35;;;;;;;;;;4861597;29;20029;-80
2021/12/11 14:58:55;;;;;;;19.35;2.78;;;;;;;;;;4861155;29;20066;-79